createdAt,value
2018-09-19T00:00:02.490Z,95.07
2018-09-19T00:01:02.742Z,95.89
2018-09-19T00:02:02.985Z,95.03
2018-09-19T00:03:03.227Z,94.54
2018-09-19T00:04:03.503Z,94.88
2018-09-19T00:05:03.712Z,95.26
2018-09-19T00:06:03.957Z,96.13
2018-09-19T00:07:04.200Z,95.94
2018-09-19T00:08:04.440Z,96.61
2018-09-19T00:09:04.682Z,96.32
2018-09-19T00:10:04.922Z,96.22
2018-09-19T00:11:05.171Z,95.94
2018-09-19T00:12:05.410Z,95.84
2018-09-19T00:13:05.651Z,95.94
2018-09-19T00:14:05.894Z,96.47
2018-09-19T00:15:06.136Z,95.89
2018-09-19T00:16:06.383Z,95.94
2018-09-19T00:17:06.625Z,95.89
2018-09-19T00:18:06.865Z,95.89
2018-09-19T00:19:07.107Z,95.31
2018-09-19T00:20:07.361Z,96.47
2018-09-19T00:21:07.594Z,95.84
2018-09-19T00:22:07.834Z,95.94
2018-09-19T00:23:08.076Z,95.26
2018-09-19T00:24:08.318Z,95.36
2018-09-19T00:25:08.561Z,95.36
2018-09-19T00:26:08.803Z,95.26
2018-09-19T00:27:09.044Z,95.55
2018-09-19T00:28:09.292Z,95.26
2018-09-19T00:29:09.525Z,96.03
2018-09-19T00:30:09.769Z,95.79
2018-09-19T00:31:10.015Z,95.79
2018-09-19T00:32:10.256Z,95.98
2018-09-19T00:33:10.500Z,95.70
2018-09-19T00:34:10.741Z,95.70
2018-09-19T00:35:10.981Z,95.79
2018-09-19T00:36:11.225Z,96.47
2018-09-19T00:37:11.466Z,95.98
2018-09-19T00:38:11.706Z,96.08
2018-09-19T00:39:11.947Z,95.89
2018-09-19T00:40:12.193Z,95.79
2018-09-19T00:41:12.435Z,94.59
2018-09-19T00:42:12.677Z,95.65
2018-09-19T00:43:12.920Z,95.26
2018-09-19T00:44:13.161Z,94.78
2018-09-19T00:45:13.428Z,95.26
2018-09-19T00:46:13.645Z,95.07
2018-09-19T00:47:13.887Z,95.55
2018-09-19T00:48:14.128Z,95.55
2018-09-19T00:49:14.372Z,95.45
2018-09-19T00:50:14.613Z,95.45
2018-09-19T00:51:14.856Z,95.36
2018-09-19T00:52:15.107Z,94.74
2018-09-19T00:53:15.339Z,94.74
2018-09-19T00:54:15.636Z,94.49
2018-09-19T00:55:15.822Z,94.59
2018-09-19T00:56:16.063Z,94.31
2018-09-19T00:57:16.306Z,94.40
2018-09-19T00:58:16.547Z,94.31
2018-09-19T00:59:16.789Z,94.69
2018-09-19T01:00:17.033Z,94.88
2018-09-19T01:01:17.274Z,94.21
2018-09-19T01:02:17.515Z,95.17
2018-09-19T01:03:17.758Z,93.21
2018-09-19T01:04:17.998Z,90.23
2018-09-19T01:05:18.241Z,90.52
2018-09-19T01:06:18.478Z,90.52
2018-09-19T01:07:18.720Z,91.77
2018-09-19T01:08:18.960Z,88.79
2018-09-19T01:09:19.206Z,86.78
2018-09-19T01:10:19.444Z,87.21
2018-09-19T01:11:19.688Z,91.62
2018-09-19T01:12:19.931Z,92.72
2018-09-19T01:13:20.169Z,93.20
2018-09-19T01:14:20.410Z,93.30
2018-09-19T01:15:20.685Z,94.26
2018-09-19T01:16:20.895Z,93.68
2018-09-19T01:17:21.134Z,92.14
2018-09-19T01:18:21.373Z,91.96
2018-09-19T01:19:21.613Z,91.96
2018-09-19T01:20:21.854Z,92.05
2018-09-19T01:21:22.090Z,92.24
2018-09-19T01:22:22.338Z,92.72
2018-09-19T01:23:22.585Z,93.01
2018-09-19T01:24:22.823Z,93.15
2018-09-19T01:25:23.068Z,93.92
2018-09-19T01:26:23.308Z,94.01
2018-09-19T01:27:23.549Z,93.82
2018-09-19T01:28:23.790Z,93.15
2018-09-19T01:29:24.032Z,93.20
2018-09-19T01:30:24.275Z,92.96
2018-09-19T01:31:24.520Z,92.72
2018-09-19T01:32:24.768Z,92.72
2018-09-19T01:33:25.005Z,92.72
2018-09-19T01:34:25.255Z,91.76
2018-09-19T01:35:25.491Z,92.14
2018-09-19T01:36:25.728Z,92.24
2018-09-19T01:37:26.024Z,92.91
2018-09-19T01:38:26.210Z,93.01
2018-09-19T01:39:26.453Z,92.82
2018-09-19T01:40:26.698Z,93.01
2018-09-19T01:41:26.937Z,93.30
2018-09-19T01:42:27.179Z,91.96
2018-09-19T01:43:27.420Z,92.63
2018-09-19T01:44:27.666Z,92.14
2018-09-19T01:45:27.907Z,90.37
2018-09-19T01:46:28.147Z,88.84
2018-09-19T01:47:28.389Z,88.55
2018-09-19T01:48:28.632Z,87.78
2018-09-19T01:49:28.873Z,88.26
2018-09-19T01:50:29.117Z,88.84
2018-09-19T01:51:29.358Z,88.84
2018-09-19T01:52:29.601Z,89.79
2018-09-19T01:53:29.845Z,91.62
2018-09-19T01:54:30.085Z,89.61
2018-09-19T01:55:30.330Z,91.19
2018-09-19T01:56:30.571Z,91.77
2018-09-19T01:57:30.809Z,89.47
2018-09-19T01:58:31.054Z,88.12
2018-09-19T01:59:31.299Z,88.31
2018-09-19T02:00:31.538Z,87.60
2018-09-19T02:01:31.782Z,86.45
2018-09-19T02:02:32.021Z,85.88
2018-09-19T02:03:32.277Z,84.72
2018-09-19T02:04:32.509Z,83.44
2018-09-19T02:05:32.750Z,81.81
2018-09-19T02:06:32.993Z,81.13
2018-09-19T02:07:33.237Z,81.04
2018-09-19T02:08:33.475Z,79.89
2018-09-19T02:09:33.716Z,78.74
2018-09-19T02:10:33.957Z,77.40
2018-09-19T02:11:34.199Z,76.35
2018-09-19T02:12:34.442Z,76.06
2018-09-19T02:13:34.685Z,77.88
2018-09-19T02:14:34.926Z,76.64
2018-09-19T02:15:35.169Z,78.27
2018-09-19T02:16:35.409Z,78.45
2018-09-19T02:17:35.651Z,80.47
2018-09-19T02:18:35.902Z,80.27
2018-09-19T02:19:36.135Z,80.12
2018-09-19T02:20:36.381Z,78.84
2018-09-19T02:21:36.619Z,81.52
2018-09-19T02:22:36.865Z,84.11
2018-09-19T02:23:37.099Z,83.63
2018-09-19T02:24:37.337Z,79.32
2018-09-19T02:25:37.577Z,78.27
2018-09-19T02:26:37.821Z,77.88
2018-09-19T02:27:38.062Z,78.45
2018-09-19T02:28:38.330Z,78.74
2018-09-19T02:29:38.546Z,78.84
2018-09-19T02:30:38.786Z,78.74
2018-09-19T02:31:39.028Z,79.89
2018-09-19T02:32:39.269Z,77.75
2018-09-19T02:33:39.508Z,75.26
2018-09-19T02:34:39.749Z,76.40
2018-09-19T02:35:39.989Z,77.84
2018-09-19T02:36:40.235Z,79.47
2018-09-19T02:37:40.476Z,74.62
2018-09-19T02:38:40.712Z,75.20
2018-09-19T02:39:40.957Z,77.21
2018-09-19T02:40:41.193Z,79.89
2018-09-19T02:41:41.429Z,80.94
2018-09-19T02:42:41.671Z,81.71
2018-09-19T02:43:41.910Z,82.00
2018-09-19T02:44:42.152Z,84.49
2018-09-19T02:45:42.394Z,84.78
2018-09-19T02:46:42.654Z,83.53
2018-09-19T02:47:42.881Z,83.68
2018-09-19T02:48:43.117Z,81.77
2018-09-19T02:49:43.356Z,81.67
2018-09-19T02:50:43.596Z,83.64
2018-09-19T02:51:43.841Z,83.06
2018-09-19T02:52:44.079Z,81.05
2018-09-19T02:53:44.343Z,81.54
2018-09-19T02:54:44.568Z,78.09
2018-09-19T02:55:44.804Z,77.65
2018-09-19T02:56:45.042Z,78.42
2018-09-19T02:57:45.279Z,80.24
2018-09-19T02:58:45.520Z,80.14
2018-09-19T02:59:45.762Z,83.30
2018-09-19T03:00:46.015Z,87.03
2018-09-19T03:01:46.239Z,86.27
2018-09-19T03:02:46.485Z,85.21
2018-09-19T03:03:46.730Z,84.45
2018-09-19T03:04:46.990Z,83.30
2018-09-19T03:05:47.210Z,82.82
2018-09-19T03:06:47.451Z,83.59
2018-09-19T03:07:47.691Z,87.13
2018-09-19T03:08:47.935Z,85.02
2018-09-19T03:09:48.175Z,83.39
2018-09-19T03:10:48.416Z,85.02
2018-09-19T03:11:48.658Z,86.27
2018-09-19T03:12:48.896Z,86.65
2018-09-19T03:13:49.136Z,86.55
2018-09-19T03:14:49.380Z,86.84
2018-09-19T03:15:49.619Z,86.65
2018-09-19T03:19:01.677Z,85.60
2018-09-19T03:20:01.933Z,84.45
2018-09-19T03:21:02.158Z,85.50
2018-09-19T03:22:02.398Z,84.92
2018-09-19T03:23:02.638Z,84.83
2018-09-19T03:24:02.877Z,84.64
2018-09-19T03:25:03.117Z,84.64
2018-09-19T03:26:03.362Z,83.39
2018-09-19T03:27:03.600Z,81.77
2018-09-19T03:28:03.841Z,81.73
2018-09-19T03:29:04.083Z,81.77
2018-09-19T03:30:04.324Z,81.48
2018-09-19T03:31:04.575Z,81.20
2018-09-19T03:32:04.806Z,79.52
2018-09-19T03:33:05.048Z,78.32
2018-09-19T03:34:05.288Z,75.89
2018-09-19T03:35:05.531Z,77.65
2018-09-19T03:36:05.771Z,80.04
2018-09-19T03:37:06.009Z,81.86
2018-09-19T03:38:06.249Z,82.11
2018-09-19T03:39:06.491Z,82.59
2018-09-19T03:40:06.735Z,81.15
2018-09-19T03:41:06.973Z,79.81
2018-09-19T03:42:07.212Z,76.27
2018-09-19T03:43:07.458Z,74.74
2018-09-19T03:44:07.690Z,72.34
2018-09-19T03:45:07.931Z,70.81
2018-09-19T03:46:08.174Z,68.23
2018-09-19T03:47:08.415Z,64.12
2018-09-19T03:48:08.656Z,64.50
2018-09-19T03:49:08.900Z,63.45
2018-09-19T03:50:09.140Z,61.54
2018-09-19T03:51:09.381Z,62.59
2018-09-19T03:52:09.623Z,62.11
2018-09-19T03:53:09.863Z,63.00
2018-09-19T03:54:10.104Z,64.34
2018-09-19T03:55:10.345Z,65.78
2018-09-19T03:56:10.588Z,65.78
2018-09-19T03:57:10.829Z,67.98
2018-09-19T03:58:11.125Z,70.47
2018-09-19T03:59:11.313Z,71.14
2018-09-19T04:00:11.569Z,73.72
2018-09-19T04:01:11.797Z,71.14
2018-09-19T04:02:12.035Z,69.57
2018-09-19T04:03:12.276Z,69.00
2018-09-19T04:04:12.516Z,66.80
2018-09-19T04:05:12.758Z,61.91
2018-09-19T04:06:12.999Z,59.72
2018-09-19T04:07:13.241Z,60.58
2018-09-19T04:08:13.483Z,61.63
2018-09-19T04:09:13.724Z,68.80
2018-09-19T04:10:13.964Z,75.22
2018-09-19T04:11:14.207Z,72.22
2018-09-19T04:12:14.451Z,78.43
2018-09-19T04:13:14.693Z,79.54
2018-09-19T04:14:14.933Z,80.79
2018-09-19T04:15:15.175Z,81.55
2018-09-19T04:16:15.414Z,80.88
2018-09-19T04:17:15.660Z,81.74
2018-09-19T04:18:15.899Z,79.93
2018-09-19T04:19:16.230Z,75.91
2018-09-19T04:20:16.375Z,74.76
2018-09-19T04:21:16.614Z,68.64
2018-09-19T04:22:16.854Z,67.82
2018-09-19T04:23:17.096Z,67.63
2018-09-19T04:24:17.334Z,68.58
2018-09-19T04:25:17.575Z,69.15
2018-09-19T04:26:17.814Z,70.05
2018-09-19T04:27:18.057Z,70.43
2018-09-19T04:28:18.295Z,69.76
2018-09-19T04:29:18.534Z,72.83
2018-09-19T04:30:18.777Z,75.70
2018-09-19T04:31:19.016Z,73.02
2018-09-19T04:32:19.329Z,69.67
2018-09-19T04:33:19.498Z,68.80
2018-09-19T04:34:19.741Z,68.71
2018-09-19T04:35:19.981Z,69.51
2018-09-19T04:36:20.218Z,71.52
2018-09-19T04:37:20.462Z,72.67
2018-09-19T04:38:20.701Z,73.54
2018-09-19T04:39:20.931Z,71.14
2018-09-19T04:40:21.181Z,69.80
2018-09-19T04:41:21.416Z,70.37
2018-09-19T04:42:21.665Z,71.14
2018-09-19T04:43:21.902Z,72.96
2018-09-19T04:44:22.136Z,75.07
2018-09-19T04:45:22.379Z,74.40
2018-09-19T04:46:22.619Z,71.97
2018-09-19T04:47:23.033Z,66.32
2018-09-19T04:48:23.287Z,64.59
2018-09-19T04:49:23.507Z,65.94
2018-09-19T04:50:23.747Z,66.99
2018-09-19T04:51:24.003Z,69.00
2018-09-19T04:52:24.224Z,66.13
2018-09-19T04:53:24.465Z,65.08
2018-09-19T04:54:24.696Z,67.98
2018-09-19T04:55:24.952Z,68.84
2018-09-19T04:56:25.197Z,68.65
2018-09-19T04:57:25.438Z,69.42
2018-09-19T04:58:25.660Z,70.47
2018-09-19T04:59:25.905Z,70.85
2018-09-19T05:00:26.169Z,70.28
2018-09-19T05:01:26.388Z,69.13
2018-09-19T05:02:26.628Z,73.24
2018-09-19T05:03:26.871Z,77.17
2018-09-19T05:04:27.110Z,78.47
2018-09-19T05:05:27.356Z,79.14
2018-09-19T05:06:27.622Z,78.76
2018-09-19T05:07:27.957Z,78.76
2018-09-19T05:08:28.201Z,78.28
2018-09-19T05:09:28.595Z,75.79
2018-09-19T05:10:28.853Z,74.45
2018-09-19T05:11:29.135Z,74.51
2018-09-19T05:12:29.331Z,72.02
2018-09-19T05:13:29.569Z,64.56
2018-09-19T05:14:29.810Z,59.49
2018-09-19T05:15:30.062Z,63.51
2018-09-19T05:16:30.291Z,62.01
2018-09-19T05:17:30.555Z,63.13
2018-09-19T05:18:30.799Z,64.12
2018-09-19T05:19:31.051Z,65.23
2018-09-19T05:20:31.299Z,69.44
2018-09-19T05:21:31.538Z,70.68
2018-09-19T05:22:31.779Z,66.09
2018-09-19T05:23:32.018Z,68.96
2018-09-19T05:24:32.261Z,66.96
2018-09-19T05:25:32.504Z,71.22
2018-09-19T05:26:32.741Z,70.17
2018-09-19T05:27:32.984Z,68.74
2018-09-19T05:28:33.227Z,68.55
2018-09-19T05:29:33.469Z,69.02
2018-09-19T05:30:33.708Z,69.44
2018-09-19T05:31:33.958Z,69.73
2018-09-19T05:32:34.191Z,70.11
2018-09-19T05:33:34.430Z,69.06
2018-09-19T05:34:34.668Z,66.00
2018-09-19T05:35:34.909Z,68.68
2018-09-19T05:36:35.148Z,73.55
2018-09-19T05:37:35.394Z,74.51
2018-09-19T05:38:35.632Z,74.61
2018-09-19T05:39:35.874Z,75.95
2018-09-19T05:40:36.110Z,73.94
2018-09-19T05:41:36.353Z,70.78
2018-09-19T05:42:36.594Z,73.55
2018-09-19T05:43:36.834Z,64.88
2018-09-19T05:44:37.075Z,72.96
2018-09-19T05:45:37.313Z,70.98
2018-09-19T05:46:37.634Z,80.79
2018-09-19T05:47:37.795Z,88.98
2018-09-19T05:48:38.038Z,91.19
2018-09-19T05:49:38.305Z,94.74
2018-09-19T05:50:38.516Z,95.46
2018-09-19T05:51:38.757Z,94.40
2018-09-19T05:52:39.003Z,94.69
2018-09-19T05:53:39.237Z,94.93
2018-09-19T05:54:39.552Z,95.70
2018-09-19T05:55:39.719Z,95.21
2018-09-19T05:56:39.962Z,96.47
2018-09-19T05:57:40.203Z,95.17
2018-09-19T05:58:40.441Z,95.75
2018-09-19T05:59:40.684Z,95.89
2018-09-19T06:00:40.923Z,95.89
2018-09-19T06:01:41.168Z,95.65
2018-09-19T06:02:41.405Z,95.41
2018-09-19T06:03:41.654Z,94.45
2018-09-19T06:04:41.916Z,94.02
2018-09-19T06:05:42.132Z,93.54
2018-09-19T06:06:42.374Z,92.49
2018-09-19T06:07:42.618Z,90.43
2018-09-19T06:08:42.860Z,91.00
2018-09-19T06:09:43.096Z,93.44
2018-09-19T06:10:43.342Z,94.50
2018-09-19T06:11:43.583Z,94.54
2018-09-19T06:12:43.841Z,94.45
2018-09-19T06:13:44.069Z,96.70
2018-09-19T06:14:44.308Z,97.14
2018-09-19T06:15:44.557Z,95.31
2018-09-19T06:16:44.790Z,95.55
2018-09-19T06:17:45.034Z,94.98
2018-09-19T06:18:45.276Z,95.12
2018-09-19T06:19:45.517Z,95.17
2018-09-19T06:20:45.762Z,94.54
2018-09-19T06:21:46.008Z,91.60
2018-09-19T06:22:46.245Z,88.70
2018-09-19T06:23:46.536Z,84.89
2018-09-19T06:24:46.731Z,83.29
2018-09-19T06:25:46.972Z,82.07
2018-09-19T06:26:47.244Z,79.95
2018-09-19T06:27:47.458Z,82.90
2018-09-19T06:28:47.697Z,83.42
2018-09-19T06:29:47.942Z,83.58
2018-09-19T06:30:48.186Z,83.96
2018-09-19T06:31:48.429Z,82.75
2018-09-19T06:32:48.737Z,81.73
2018-09-19T06:33:48.915Z,78.23
2018-09-19T06:34:49.159Z,75.65
2018-09-19T06:35:49.406Z,72.53
2018-09-19T06:36:49.650Z,70.34
2018-09-19T06:37:49.891Z,67.08
2018-09-19T06:38:50.136Z,66.63
2018-09-19T06:39:50.391Z,65.11
2018-09-19T06:40:50.658Z,66.08
2018-09-19T06:41:50.869Z,66.53
2018-09-19T06:42:51.120Z,69.47
2018-09-19T06:43:51.365Z,71.28
2018-09-19T06:44:51.610Z,70.18
2018-09-19T06:45:51.860Z,69.70
2018-09-19T06:46:52.164Z,67.63
2018-09-19T06:47:52.349Z,65.50
2018-09-19T06:48:52.602Z,66.17
2018-09-19T06:49:52.843Z,66.17
2018-09-19T06:50:53.091Z,63.68
2018-09-19T06:51:53.402Z,63.20
2018-09-19T06:52:53.582Z,62.07
2018-09-19T06:53:53.830Z,60.83
2018-09-19T06:54:54.075Z,61.07
2018-09-19T06:55:54.323Z,61.09
2018-09-19T06:56:54.571Z,59.41
2018-09-19T06:57:54.818Z,58.26
2018-09-19T06:58:55.070Z,56.74
2018-09-19T06:59:55.313Z,55.79
2018-09-19T07:00:55.563Z,55.40
2018-09-19T07:01:55.810Z,55.11
2018-09-19T07:02:56.056Z,55.57
2018-09-19T07:03:56.305Z,55.11
2018-09-19T07:04:56.552Z,55.25
2018-09-19T07:05:56.853Z,57.59
2018-09-19T07:06:57.048Z,57.22
2018-09-19T07:07:57.295Z,56.27
2018-09-19T07:08:57.542Z,56.22
2018-09-19T07:09:57.789Z,55.60
2018-09-19T07:10:58.038Z,54.75
2018-09-19T07:11:58.289Z,54.26
2018-09-19T07:12:58.535Z,53.99
2018-09-19T07:13:58.783Z,54.91
2018-09-19T07:14:59.030Z,56.81
2018-09-19T07:15:59.279Z,56.76
2018-09-19T07:16:59.537Z,54.48
2018-09-19T07:17:59.777Z,54.55
2018-09-19T07:19:00.092Z,59.18
2018-09-19T07:20:00.277Z,65.14
2018-09-19T07:21:00.521Z,67.57
2018-09-19T07:22:00.770Z,65.89
2018-09-19T07:23:01.018Z,62.19
2018-09-19T07:24:01.269Z,59.92
2018-09-19T07:25:01.561Z,57.54
2018-09-19T07:26:01.770Z,58.14
2018-09-19T07:27:02.013Z,62.07
2018-09-19T07:28:02.260Z,63.20
2018-09-19T07:29:02.512Z,64.82
2018-09-19T07:30:02.758Z,66.20
2018-09-19T07:31:03.024Z,73.97
2018-09-19T07:32:03.258Z,78.52
2018-09-19T07:33:03.505Z,79.06
2018-09-19T07:34:03.754Z,79.25
2018-09-19T07:35:04.007Z,78.81
2018-09-19T07:36:04.251Z,78.71
2018-09-19T07:37:04.501Z,79.10
2018-09-19T07:38:04.748Z,74.51
2018-09-19T07:39:05.000Z,69.57
2018-09-19T07:40:05.294Z,64.17
2018-09-19T07:41:05.498Z,64.33
2018-09-19T07:42:05.746Z,62.13
2018-09-19T07:43:05.993Z,59.46
2018-09-19T07:44:06.243Z,58.42
2018-09-19T07:45:06.490Z,57.31
2018-09-19T07:46:06.737Z,58.03
2018-09-19T07:47:06.990Z,57.15
2018-09-19T07:48:07.235Z,55.68
2018-09-19T07:49:07.486Z,57.74
2018-09-19T07:50:07.734Z,57.67
2018-09-19T07:51:07.983Z,54.83
2018-09-19T07:52:08.236Z,53.78
2018-09-19T07:53:08.486Z,52.44
2018-09-19T07:54:08.735Z,51.39
2018-09-19T07:55:09.006Z,50.73
2018-09-19T07:56:09.236Z,50.76
2018-09-19T07:57:09.508Z,49.41
2018-09-19T07:58:09.736Z,49.11
2018-09-19T07:59:09.978Z,50.78
2018-09-19T08:00:10.241Z,53.97
2018-09-19T08:01:10.508Z,58.33
2018-09-19T08:02:10.740Z,62.62
2018-09-19T08:03:11.013Z,63.32
2018-09-19T08:04:11.237Z,59.63
2018-09-19T08:05:11.488Z,58.65
2018-09-19T08:06:11.735Z,57.54
2018-09-19T08:07:11.987Z,55.82
2018-09-19T08:08:12.243Z,56.05
2018-09-19T08:09:12.523Z,59.86
2018-09-19T08:10:12.746Z,62.52
2018-09-19T08:11:12.998Z,62.26
2018-09-19T08:12:13.244Z,63.26
2018-09-19T08:13:13.499Z,61.05
2018-09-19T08:14:13.773Z,58.07
2018-09-19T08:15:13.995Z,59.53
2018-09-19T08:16:14.249Z,58.75
2018-09-19T08:17:14.500Z,59.99
2018-09-19T08:18:14.749Z,59.43
2018-09-19T08:19:15.003Z,57.42
2018-09-19T08:20:15.248Z,59.63
2018-09-19T08:21:15.503Z,60.47
2018-09-19T08:22:15.752Z,60.44
2018-09-19T08:23:16.008Z,62.35
2018-09-19T08:24:16.258Z,64.14
2018-09-19T08:25:16.516Z,65.66
2018-09-19T08:26:16.763Z,64.01
2018-09-19T08:27:17.022Z,61.80
2018-09-19T08:28:17.263Z,59.33
2018-09-19T08:29:17.514Z,61.09
2018-09-19T08:30:17.769Z,62.00
2018-09-19T08:31:18.016Z,61.38
2018-09-19T08:32:18.267Z,59.05
2018-09-19T08:33:18.518Z,59.72
2018-09-19T08:34:18.770Z,57.93
2018-09-19T08:35:19.048Z,56.70
2018-09-19T08:36:19.270Z,56.54
2018-09-19T08:37:19.522Z,54.50
2018-09-19T08:38:19.770Z,52.17
2018-09-19T08:39:20.020Z,53.27
2018-09-19T08:40:20.271Z,52.39
2018-09-19T08:41:20.522Z,51.20
2018-09-19T08:42:20.772Z,48.97
2018-09-19T08:43:21.027Z,49.80
2018-09-19T08:44:21.277Z,51.27
2018-09-19T08:45:21.532Z,52.36
2018-09-19T08:46:21.781Z,52.39
2018-09-19T08:47:22.034Z,49.58
2018-09-19T08:48:22.285Z,48.26
2018-09-19T08:49:22.546Z,49.07
2018-09-19T08:50:22.852Z,47.65
2018-09-19T08:51:23.043Z,46.79
2018-09-19T08:52:23.299Z,47.28
2018-09-19T08:53:23.550Z,46.03
2018-09-19T08:54:23.802Z,45.17
2018-09-19T08:55:24.056Z,45.21
2018-09-19T08:56:24.308Z,45.29
2018-09-19T08:57:24.560Z,44.13
2018-09-19T08:58:24.816Z,45.55
2018-09-19T08:59:25.069Z,47.89
2018-09-19T09:00:25.324Z,50.60
2018-09-19T09:01:25.581Z,54.21
2018-09-19T09:02:25.833Z,53.89
2018-09-19T09:03:26.085Z,51.02
2018-09-19T09:04:26.338Z,51.21
2018-09-19T09:05:26.675Z,51.12
2018-09-19T09:06:26.835Z,50.85
2018-09-19T09:07:27.087Z,50.80
2018-09-19T09:08:27.341Z,50.53
2018-09-19T09:09:27.595Z,50.04
2018-09-19T09:10:27.850Z,50.43
2018-09-19T09:11:28.106Z,49.22
2018-09-19T09:12:28.364Z,48.63
2018-09-19T09:13:28.623Z,48.61
2018-09-19T09:14:28.864Z,49.27
2018-09-19T09:15:29.118Z,48.85
2018-09-19T09:16:29.377Z,47.67
2018-09-19T09:17:29.624Z,48.12
2018-09-19T09:18:29.874Z,46.53
2018-09-19T09:19:30.128Z,45.23
2018-09-19T09:20:30.414Z,44.55
2018-09-19T09:21:30.636Z,45.06
2018-09-19T09:22:30.889Z,45.62
2018-09-19T09:23:31.145Z,45.82
2018-09-19T09:24:31.399Z,45.26
2018-09-19T09:25:31.648Z,43.38
2018-09-19T09:26:31.903Z,42.13
2018-09-19T09:27:32.154Z,42.13
2018-09-19T09:28:32.407Z,43.02
2018-09-19T09:29:32.659Z,42.35
2018-09-19T09:30:32.916Z,42.70
2018-09-19T09:31:33.168Z,42.35
2018-09-19T09:32:33.424Z,41.90
2018-09-19T09:33:33.674Z,40.86
2018-09-19T09:34:33.930Z,40.90
2018-09-19T09:35:34.184Z,42.37
2018-09-19T09:36:34.477Z,41.33
2018-09-19T09:37:34.692Z,40.48
2018-09-19T09:38:34.944Z,38.93
2018-09-19T09:39:35.202Z,38.82
2018-09-19T09:40:35.523Z,39.21
2018-09-19T09:41:35.709Z,40.74
2018-09-19T09:42:35.965Z,41.56
2018-09-19T09:43:36.253Z,42.35
2018-09-19T09:44:36.476Z,43.07
2018-09-19T09:45:36.729Z,42.70
2018-09-19T09:46:36.983Z,42.99
2018-09-19T09:47:37.231Z,43.09
2018-09-19T09:48:37.488Z,42.99
2018-09-19T09:49:37.741Z,43.68
2018-09-19T09:50:37.999Z,43.56
2018-09-19T09:51:38.315Z,43.77
2018-09-19T09:52:38.505Z,43.38
2018-09-19T09:53:38.766Z,43.85
2018-09-19T09:54:39.016Z,43.70
2018-09-19T09:55:39.270Z,43.04
2018-09-19T09:56:39.527Z,42.99
2018-09-19T09:57:39.785Z,43.41
2018-09-19T09:58:40.040Z,41.68
2018-09-19T09:59:40.295Z,43.23
2018-09-19T10:00:40.552Z,41.80
2018-09-19T10:01:40.803Z,40.58
2018-09-19T10:02:41.059Z,40.84
2018-09-19T10:03:41.318Z,41.29
2018-09-19T10:04:41.569Z,41.56
2018-09-19T10:05:41.825Z,42.41
2018-09-19T10:06:42.082Z,42.58
2018-09-19T10:07:42.336Z,43.85
2018-09-19T10:08:42.591Z,43.93
2018-09-19T10:09:42.846Z,43.09
2018-09-19T10:10:43.103Z,42.62
2018-09-19T10:11:43.363Z,42.27
2018-09-19T10:12:43.618Z,41.11
2018-09-19T10:13:43.924Z,41.45
2018-09-19T10:14:44.129Z,41.52
2018-09-19T10:15:44.387Z,43.69
2018-09-19T10:16:44.645Z,43.05
2018-09-19T10:17:44.894Z,42.68
2018-09-19T10:18:45.151Z,41.99
2018-09-19T10:19:45.403Z,42.23
2018-09-19T10:20:45.660Z,42.03
2018-09-19T10:21:45.914Z,41.76
2018-09-19T10:22:46.168Z,41.66
2018-09-19T10:23:46.422Z,41.00
2018-09-19T10:24:46.676Z,40.92
2018-09-19T10:25:46.931Z,41.47
2018-09-19T10:26:47.186Z,42.50
2018-09-19T10:27:47.441Z,42.72
2018-09-19T10:28:47.697Z,42.33
2018-09-19T10:29:47.952Z,42.62
2018-09-19T10:30:48.205Z,41.88
2018-09-19T10:31:48.459Z,41.94
2018-09-19T10:32:48.714Z,42.21
2018-09-19T10:33:48.968Z,42.70
2018-09-19T10:34:49.224Z,43.37
2018-09-19T10:35:49.485Z,44.69
2018-09-19T10:36:49.736Z,45.53
2018-09-19T10:37:49.992Z,46.36
2018-09-19T10:38:50.249Z,45.40
2018-09-19T10:39:50.503Z,44.81
2018-09-19T10:40:50.758Z,44.69
2018-09-19T10:41:51.013Z,44.34
2018-09-19T10:42:51.268Z,44.46
2018-09-19T10:43:51.582Z,43.77
2018-09-19T10:44:51.779Z,42.94
2018-09-19T10:45:52.034Z,41.86
2018-09-19T10:46:52.293Z,42.27
2018-09-19T10:47:52.543Z,41.41
2018-09-19T10:48:52.795Z,40.45
2018-09-19T10:49:53.054Z,41.11
2018-09-19T10:50:53.306Z,41.00
2018-09-19T10:51:53.560Z,40.55
2018-09-19T10:52:53.813Z,39.88
2018-09-19T10:53:54.076Z,39.72
2018-09-19T10:54:54.325Z,40.23
2018-09-19T10:55:54.579Z,39.09
2018-09-19T10:56:54.870Z,38.34
2018-09-19T10:57:55.089Z,37.92
2018-09-19T10:58:55.345Z,38.60
2018-09-19T10:59:55.602Z,37.62
2018-09-19T11:00:55.860Z,37.07
2018-09-19T11:01:56.112Z,36.69
2018-09-19T11:02:56.369Z,36.77
2018-09-19T11:03:56.641Z,36.28
2018-09-19T11:04:56.879Z,37.32
2018-09-19T11:05:57.136Z,38.07
2018-09-19T11:06:57.395Z,39.11
2018-09-19T11:07:57.653Z,39.78
2018-09-19T11:08:57.912Z,39.66
2018-09-19T11:09:58.171Z,43.41
2018-09-19T11:10:58.430Z,46.20
2018-09-19T11:11:58.687Z,47.80
2018-09-19T11:12:58.944Z,48.93
2018-09-19T11:13:59.198Z,49.61
2018-09-19T11:14:59.454Z,50.29
2018-09-19T11:15:59.710Z,50.21
2018-09-19T11:16:59.979Z,48.34
2018-09-19T11:18:00.219Z,46.36
2018-09-19T11:19:00.474Z,43.87
2018-09-19T11:20:00.733Z,42.93
2018-09-19T11:21:00.984Z,41.49
2018-09-19T11:22:01.238Z,40.72
2018-09-19T11:23:01.491Z,41.41
2018-09-19T11:24:01.745Z,40.84
2018-09-19T11:25:02.001Z,41.58
2018-09-19T11:26:02.255Z,41.70
2018-09-19T11:27:02.508Z,42.17
2018-09-19T11:28:02.762Z,40.86
2018-09-19T11:29:03.018Z,40.21
2018-09-19T11:30:03.274Z,39.62
2018-09-19T11:31:03.532Z,40.45
2018-09-19T11:32:03.788Z,40.19
2018-09-19T11:33:04.044Z,39.53
2018-09-19T11:34:04.298Z,39.11
2018-09-19T11:35:04.552Z,39.72
2018-09-19T11:36:04.809Z,39.80
2018-09-19T11:37:05.071Z,40.06
2018-09-19T11:38:05.320Z,40.35
2018-09-19T11:39:05.576Z,40.82
2018-09-19T11:40:05.831Z,41.00
2018-09-19T11:41:06.102Z,41.62
2018-09-19T11:42:06.356Z,40.48
2018-09-19T11:43:06.614Z,40.00
2018-09-19T11:44:06.907Z,39.61
2018-09-19T11:45:07.162Z,39.51
2018-09-19T11:46:07.418Z,40.45
2018-09-19T11:47:07.674Z,40.08
2018-09-19T11:48:07.926Z,39.72
2018-09-19T11:49:08.183Z,39.14
2018-09-19T11:50:08.434Z,38.17
2018-09-19T11:51:08.687Z,38.07
2018-09-19T11:52:08.942Z,38.93
2018-09-19T11:53:09.199Z,39.22
2018-09-19T11:54:09.454Z,39.78
2018-09-19T11:55:09.711Z,40.08
2018-09-19T11:56:09.966Z,41.11
2018-09-19T11:57:10.221Z,40.80
2018-09-19T11:58:10.524Z,42.74
2018-09-19T11:59:10.733Z,41.05
2018-09-19T12:00:10.992Z,40.33
2018-09-19T12:01:11.243Z,40.66
2018-09-19T12:02:11.501Z,40.35
2018-09-19T12:03:11.756Z,40.17
2018-09-19T12:04:12.012Z,41.33
2018-09-19T12:05:12.273Z,40.19
2018-09-19T12:06:12.522Z,39.70
2018-09-19T12:07:12.827Z,39.14
2018-09-19T12:08:13.033Z,39.03
2018-09-19T12:09:13.323Z,38.50
2018-09-19T12:10:13.547Z,36.95
2018-09-19T12:11:13.809Z,37.52
2018-09-19T12:12:14.060Z,37.34
2018-09-19T12:13:14.315Z,36.16
2018-09-19T12:14:14.570Z,36.00
2018-09-19T12:15:14.827Z,36.24
2018-09-19T12:16:15.083Z,36.34
2018-09-19T12:17:15.341Z,38.31
2018-09-19T12:18:15.597Z,38.92
2018-09-19T12:19:15.855Z,38.54
2018-09-19T12:20:16.114Z,37.13
2018-09-19T12:21:16.368Z,37.61
2018-09-19T12:22:16.626Z,41.52
2018-09-19T12:23:16.885Z,42.89
2018-09-19T12:24:17.139Z,42.11
2018-09-19T12:25:17.394Z,42.97
2018-09-19T12:26:17.678Z,43.80
2018-09-19T12:27:17.909Z,43.82
2018-09-19T12:28:18.166Z,42.69
2018-09-19T12:29:18.420Z,41.09
2018-09-19T12:30:18.679Z,40.63
2018-09-19T12:31:18.929Z,39.19
2018-09-19T12:32:19.186Z,37.84
2018-09-19T12:33:19.496Z,38.04
2018-09-19T12:34:19.696Z,38.13
2018-09-19T12:35:19.950Z,37.09
2018-09-19T12:36:20.204Z,37.46
2018-09-19T12:37:20.460Z,38.13
2018-09-19T12:38:20.719Z,37.46
2018-09-19T12:39:20.973Z,37.37
2018-09-19T12:40:21.228Z,37.35
2018-09-19T12:41:21.483Z,38.43
2018-09-19T12:42:21.738Z,38.06
2018-09-19T12:43:21.996Z,37.37
2018-09-19T12:44:22.248Z,38.00
2018-09-19T12:45:22.504Z,40.48
2018-09-19T12:46:22.761Z,40.01
2018-09-19T12:47:23.017Z,39.56
2018-09-19T12:48:23.273Z,39.01
2018-09-19T12:49:23.532Z,37.84
2018-09-19T12:50:23.786Z,37.90
2018-09-19T12:51:24.039Z,40.47
2018-09-19T12:52:24.296Z,40.39
2018-09-19T12:53:24.651Z,40.63
2018-09-19T12:54:24.809Z,39.86
2018-09-19T12:55:25.065Z,38.86
2018-09-19T12:56:25.318Z,40.66
2018-09-19T12:57:25.575Z,42.94